createdAt,value
2022-08-07T00:02:41.057Z,98628.88
2022-08-07T00:05:05.827Z,98626.47
2022-08-07T00:07:40.580Z,98629.00
2022-08-07T00:10:26.953Z,98648.38
2022-08-07T00:13:17.593Z,98637.09
2022-08-07T00:15:53.018Z,98637.75
2022-08-07T00:18:25.692Z,98637.25
2022-08-07T00:20:57.552Z,98641.38
2022-08-07T00:23:32.307Z,98651.03
2022-08-07T00:26:18.797Z,98652.63
2022-08-07T00:28:57.209Z,98648.38
2022-08-07T00:31:37.838Z,98646.28
2022-08-07T00:34:10.877Z,98638.66
2022-08-07T00:36:43.172Z,98641.66
2022-08-07T00:39:17.120Z,98643.75
2022-08-07T00:42:05.054Z,98642.94
2022-08-07T00:44:35.598Z,98647.34
2022-08-07T00:47:15.667Z,98641.50
2022-08-07T00:50:21.527Z,98654.50
2022-08-07T00:52:49.297Z,98645.81
2022-08-07T00:55:25.497Z,98644.81
2022-08-07T00:58:13.305Z,98641.81
2022-08-07T01:00:53.361Z,98636.44
2022-08-07T01:03:54.616Z,98643.41
2022-08-07T01:06:13.197Z,98637.22
2022-08-07T01:08:53.626Z,98635.00
2022-08-07T01:12:09.984Z,98644.50
2022-08-07T01:14:16.696Z,98642.44
2022-08-07T01:16:48.065Z,98637.34
2022-08-07T01:19:20.804Z,98633.88
2022-08-07T01:21:57.537Z,98637.22
2022-08-07T01:24:30.808Z,98640.53
2022-08-07T01:27:02.529Z,98637.34
2022-08-07T01:29:34.240Z,98632.25
2022-08-07T01:32:12.523Z,98629.88
2022-08-07T01:34:49.207Z,98640.34
2022-08-07T01:37:21.125Z,98635.38
2022-08-07T01:39:54.308Z,98630.63
2022-08-07T01:42:40.235Z,98640.09
2022-08-07T01:45:37.157Z,98640.56
2022-08-07T01:48:19.951Z,98632.19
2022-08-07T01:51:24.398Z,98633.91
2022-08-07T01:54:09.621Z,98638.03
2022-08-07T01:56:52.981Z,98639.09
2022-08-07T01:59:31.064Z,98636.84
2022-08-07T02:02:10.289Z,98634.56
2022-08-07T02:04:55.921Z,98646.13
2022-08-07T02:07:44.983Z,98629.81
2022-08-07T02:10:28.070Z,98636.13
2022-08-07T02:13:02.629Z,98638.91
2022-08-07T02:15:47.079Z,98644.28
2022-08-07T02:18:18.004Z,98645.38
2022-08-07T02:20:53.625Z,98637.28
2022-08-07T02:23:28.818Z,98646.41
2022-08-07T02:26:26.581Z,98634.38
2022-08-07T02:28:58.732Z,98645.41
2022-08-07T02:31:31.060Z,98644.41
2022-08-07T02:34:11.318Z,98644.72
2022-08-07T02:36:53.306Z,98649.72
2022-08-07T02:39:43.067Z,98647.81
2022-08-07T02:42:19.926Z,98648.06
2022-08-07T02:44:54.011Z,98648.41
2022-08-07T02:47:27.799Z,98638.53
2022-08-07T02:50:12.171Z,98639.69
2022-08-07T02:52:49.247Z,98637.66
2022-08-07T02:55:28.731Z,98642.38
2022-08-07T02:58:21.719Z,98632.16
2022-08-07T03:00:56.041Z,98635.88
2022-08-07T03:03:49.479Z,98633.41
2022-08-07T03:06:33.246Z,98634.00
2022-08-07T03:09:07.626Z,98624.69
2022-08-07T03:11:52.521Z,98623.16
2022-08-07T03:14:33.309Z,98639.06
2022-08-07T03:17:04.633Z,98638.34
2022-08-07T03:19:36.980Z,98634.47
2022-08-07T03:22:18.803Z,98629.72
2022-08-07T03:24:49.983Z,98628.19
2022-08-07T03:27:30.647Z,98627.25
2022-08-07T03:30:12.827Z,98631.03
2022-08-07T03:32:57.026Z,98632.63
2022-08-07T03:35:43.568Z,98633.88
2022-08-07T03:38:31.137Z,98634.63
2022-08-07T03:41:06.100Z,98626.34
2022-08-07T03:43:56.971Z,98624.63
2022-08-07T03:46:32.640Z,98618.38
2022-08-07T03:49:03.723Z,98627.31
2022-08-07T03:51:47.355Z,98629.25
2022-08-07T03:54:35.208Z,98630.50
2022-08-07T03:57:09.529Z,98625.97
2022-08-07T03:59:46.637Z,98627.66
2022-08-07T04:02:34.657Z,98622.22
2022-08-07T04:05:10.425Z,98627.91
2022-08-07T04:07:45.288Z,98623.34
2022-08-07T04:10:19.543Z,98626.44
2022-08-07T04:12:51.405Z,98642.28
2022-08-07T04:15:23.953Z,98641.38
2022-08-07T04:18:56.560Z,98645.47
2022-08-07T04:20:54.545Z,98632.81
2022-08-07T04:23:43.844Z,98632.47
2022-08-07T04:26:21.802Z,98630.09
2022-08-07T04:28:52.275Z,98639.97
2022-08-07T04:31:39.253Z,98636.56
2022-08-07T04:34:17.356Z,98644.53
2022-08-07T04:36:57.343Z,98632.09
2022-08-07T04:39:26.766Z,98631.88
2022-08-07T04:42:05.930Z,98640.03
2022-08-07T04:44:37.569Z,98636.22
2022-08-07T04:48:02.216Z,98643.22
2022-08-07T04:50:43.331Z,98646.44
2022-08-07T04:54:01.078Z,98640.84
2022-08-07T04:58:14.295Z,98643.25
2022-08-07T05:00:10.702Z,98648.81
2022-08-07T05:02:29.447Z,98652.78
2022-08-07T05:05:11.500Z,98653.75
2022-08-07T05:08:05.943Z,98657.31
2022-08-07T05:10:44.844Z,98652.69
2022-08-07T05:14:53.824Z,98658.63
2022-08-07T05:16:15.549Z,98659.03
2022-08-07T05:18:52.511Z,98667.78
2022-08-07T05:21:59.193Z,98671.63
2022-08-07T05:24:24.671Z,98670.06
2022-08-07T05:27:01.746Z,98669.59
2022-08-07T05:29:48.053Z,98655.19
2022-08-07T05:32:24.966Z,98673.97
2022-08-07T05:34:55.560Z,98658.91
2022-08-07T05:37:25.956Z,98667.47
2022-08-07T05:40:05.492Z,98669.19
2022-08-07T05:42:39.293Z,98675.72
2022-08-07T05:45:26.185Z,98684.41
2022-08-07T05:48:09.270Z,98672.34
2022-08-07T05:50:44.757Z,98669.22
2022-08-07T05:54:12.817Z,98670.16
2022-08-07T05:56:12.374Z,98673.97
2022-08-07T05:58:49.183Z,98671.75
2022-08-07T06:01:21.734Z,98675.22
2022-08-07T06:03:58.658Z,98673.47
2022-08-07T06:06:36.135Z,98683.47
2022-08-07T06:09:08.869Z,98675.50
2022-08-07T06:11:47.105Z,98673.25
2022-08-07T06:14:20.840Z,98676.53
2022-08-07T06:16:57.960Z,98671.19
2022-08-07T06:19:47.937Z,98680.34
2022-08-07T06:22:36.897Z,98676.09
2022-08-07T06:25:29.110Z,98680.75
2022-08-07T06:28:06.524Z,98688.09
2022-08-07T06:30:42.665Z,98675.09
2022-08-07T06:33:20.733Z,98681.47
2022-08-07T06:36:12.946Z,98669.78
2022-08-07T06:38:59.476Z,98679.03
2022-08-07T06:42:01.733Z,98680.69
2022-08-07T06:45:46.160Z,98676.06
2022-08-07T06:48:15.828Z,98682.50
2022-08-07T06:50:59.335Z,98683.22
2022-08-07T06:55:27.295Z,98679.13
2022-08-07T06:56:48.692Z,98687.47
2022-08-07T07:00:14.775Z,98686.28
2022-08-07T07:02:54.426Z,98683.84
2022-08-07T07:06:04.893Z,98684.34
2022-08-07T07:08:18.618Z,98684.50
2022-08-07T07:11:14.500Z,98688.06
2022-08-07T07:14:01.402Z,98687.03
2022-08-07T07:16:50.061Z,98680.66
2022-08-07T07:19:55.736Z,98689.66
2022-08-07T07:22:36.280Z,98693.91
2022-08-07T07:26:35.842Z,98686.28
2022-08-07T07:28:42.077Z,98688.28
2022-08-07T07:31:13.583Z,98688.28
